sensor_id;sensor_type;location;lat;lon;timestamp;pressure;altitude;pressure_sealevel;temperature;humidity
64362;BME280;50685;53.346;-6.296;2023-03-14T07:30:20;100431.19;;;2.46;87.37
64362;BME280;50685;53.346;-6.296;2023-03-14T08:17:04;100529.34;;;4.25;78.91
64362;BME280;50685;53.346;-6.296;2023-03-14T08:19:30;100524.00;;;4.12;78.94
64362;BME280;50685;53.346;-6.296;2023-03-14T08:21:56;100534.44;;;4.05;79.54
64362;BME280;50685;53.346;-6.296;2023-03-14T08:24:21;100533.53;;;4.04;79.53
64362;BME280;50685;53.346;-6.296;2023-03-14T08:26:47;100520.50;;;4.13;78.76
64362;BME280;50685;53.346;-6.296;2023-03-14T08:29:12;100527.47;;;4.08;78.16
64362;BME280;50685;53.346;-6.296;2023-03-14T08:31:37;100541.34;;;3.98;78.28
64362;BME280;50685;53.346;-6.296;2023-03-14T08:34:06;100533.34;;;3.85;78.65
64362;BME280;50685;53.346;-6.296;2023-03-14T08:36:32;100537.56;;;3.71;79.32
64362;BME280;50685;53.346;-6.296;2023-03-14T08:38:57;100541.06;;;3.70;79.90
64362;BME280;50685;53.346;-6.296;2023-03-14T08:41:23;100543.69;;;3.72;80.29
64362;BME280;50685;53.346;-6.296;2023-03-14T08:43:48;100550.16;;;4.05;79.12
64362;BME280;50685;53.346;-6.296;2023-03-14T08:46:14;100560.28;;;4.60;76.66
64362;BME280;50685;53.346;-6.296;2023-03-14T08:48:39;100551.94;;;5.30;75.62
64362;BME280;50685;53.346;-6.296;2023-03-14T08:51:09;100556.53;;;5.76;73.52
64362;BME280;50685;53.346;-6.296;2023-03-14T08:53:37;100564.53;;;6.15;70.32
64362;BME280;50685;53.346;-6.296;2023-03-14T08:56:02;100569.84;;;6.57;69.74
64362;BME280;50685;53.346;-6.296;2023-03-14T08:58:30;100575.06;;;6.94;69.67
64362;BME280;50685;53.346;-6.296;2023-03-14T09:01:05;100565.38;;;7.08;67.62
64362;BME280;50685;53.346;-6.296;2023-03-14T09:03:41;100568.84;;;7.26;66.85
64362;BME280;50685;53.346;-6.296;2023-03-14T09:06:27;100577.53;;;7.62;67.19
64362;BME280;50685;53.346;-6.296;2023-03-14T09:09:06;100578.38;;;7.64;64.49
64362;BME280;50685;53.346;-6.296;2023-03-14T09:11:32;100574.75;;;7.92;66.25
64362;BME280;50685;53.346;-6.296;2023-03-14T09:17:09;100584.06;;;8.51;63.86
64362;BME280;50685;53.346;-6.296;2023-03-14T09:19:43;100573.44;;;8.58;61.89
64362;BME280;50685;53.346;-6.296;2023-03-14T09:22:09;100561.78;;;8.80;61.72
64362;BME280;50685;53.346;-6.296;2023-03-14T09:24:37;100564.09;;;9.13;60.93
64362;BME280;50685;53.346;-6.296;2023-03-14T09:27:05;100570.84;;;9.42;62.46
64362;BME280;50685;53.346;-6.296;2023-03-14T09:32:16;100566.13;;;9.67;58.96
64362;BME280;50685;53.346;-6.296;2023-03-14T09:34:42;100558.03;;;9.78;56.99
64362;BME280;50685;53.346;-6.296;2023-03-14T09:37:07;100578.66;;;10.21;61.04
64362;BME280;50685;53.346;-6.296;2023-03-14T09:39:33;100575.91;;;10.27;57.19
64362;BME280;50685;53.346;-6.296;2023-03-14T09:41:58;100581.59;;;10.60;58.31
64362;BME280;50685;53.346;-6.296;2023-03-14T09:44:33;100586.34;;;10.93;58.19
64362;BME280;50685;53.346;-6.296;2023-03-14T09:47:05;100585.16;;;11.09;57.70
64362;BME280;50685;53.346;-6.296;2023-03-14T09:49:44;100593.03;;;11.14;57.42
64362;BME280;50685;53.346;-6.296;2023-03-14T09:52:20;100600.84;;;11.23;56.56
64362;BME280;50685;53.346;-6.296;2023-03-14T09:54:48;100602.69;;;11.20;53.50
64362;BME280;50685;53.346;-6.296;2023-03-14T09:57:34;100615.06;;;11.19;54.24
64362;BME280;50685;53.346;-6.296;2023-03-14T10:00:03;100599.09;;;11.22;55.38
64362;BME280;50685;53.346;-6.296;2023-03-14T10:02:39;100607.31;;;11.54;55.47
64362;BME280;50685;53.346;-6.296;2023-03-14T10:05:29;100613.03;;;11.79;53.86
64362;BME280;50685;53.346;-6.296;2023-03-14T10:07:54;100614.53;;;11.93;51.62
64362;BME280;50685;53.346;-6.296;2023-03-14T10:10:23;100603.50;;;12.11;54.59
64362;BME280;50685;53.346;-6.296;2023-03-14T10:13:26;100604.22;;;12.19;52.54
64362;BME280;50685;53.346;-6.296;2023-03-14T10:18:22;100621.78;;;11.39;51.84
64362;BME280;50685;53.346;-6.296;2023-03-14T10:20:48;100635.97;;;10.86;52.05
64362;BME280;50685;53.346;-6.296;2023-03-14T10:25:45;100649.81;;;11.05;53.59
64362;BME280;50685;53.346;-6.296;2023-03-14T10:28:32;100646.81;;;10.72;54.39
64362;BME280;50685;53.346;-6.296;2023-03-14T10:30:57;100649.97;;;10.38;56.94
64362;BME280;50685;53.346;-6.296;2023-03-14T10:33:24;100654.47;;;10.32;54.91
64362;BME280;50685;53.346;-6.296;2023-03-14T10:35:53;100652.47;;;10.49;54.81
64362;BME280;50685;53.346;-6.296;2023-03-14T10:38:19;100649.91;;;10.43;55.52
64362;BME280;50685;53.346;-6.296;2023-03-14T10:40:51;100637.47;;;10.50;56.03
64362;BME280;50685;53.346;-6.296;2023-03-14T10:43:23;100641.19;;;10.36;56.64
64362;BME280;50685;53.346;-6.296;2023-03-14T10:45:56;100624.94;;;9.95;55.27
64362;BME280;50685;53.346;-6.296;2023-03-14T10:53:19;100638.34;;;9.81;56.37
64362;BME280;50685;53.346;-6.296;2023-03-14T10:55:44;100659.66;;;9.72;56.62
64362;BME280;50685;53.346;-6.296;2023-03-14T11:00:46;100634.00;;;9.74;56.17
64362;BME280;50685;53.346;-6.296;2023-03-14T11:03:14;100660.66;;;9.60;56.72
64362;BME280;50685;53.346;-6.296;2023-03-14T11:05:46;100660.63;;;9.62;56.92
64362;BME280;50685;53.346;-6.296;2023-03-14T11:10:39;100667.66;;;9.66;56.75
64362;BME280;50685;53.346;-6.296;2023-03-14T11:15:48;100660.66;;;9.57;56.15
64362;BME280;50685;53.346;-6.296;2023-03-14T11:18:31;100666.75;;;9.69;56.22
64362;BME280;50685;53.346;-6.296;2023-03-14T11:28:37;100660.50;;;9.76;56.07
64362;BME280;50685;53.346;-6.296;2023-03-14T11:31:10;100651.63;;;9.77;55.40
64362;BME280;50685;53.346;-6.296;2023-03-14T11:33:52;100649.66;;;9.93;56.76
64362;BME280;50685;53.346;-6.296;2023-03-14T11:36:36;100652.25;;;9.97;56.00
64362;BME280;50685;53.346;-6.296;2023-03-14T11:39:07;100653.22;;;9.93;56.21
64362;BME280;50685;53.346;-6.296;2023-03-14T11:41:40;100638.38;;;9.80;56.93
64362;BME280;50685;53.346;-6.296;2023-03-14T11:44:48;100653.38;;;9.78;55.07
64362;BME280;50685;53.346;-6.296;2023-03-14T11:46:56;100646.25;;;9.83;56.10
64362;BME280;50685;53.346;-6.296;2023-03-14T11:49:45;100665.81;;;9.73;55.27
64362;BME280;50685;53.346;-6.296;2023-03-14T11:52:16;100648.47;;;9.42;54.78
64362;BME280;50685;53.346;-6.296;2023-03-14T11:57:15;100649.72;;;9.07;54.99
64362;BME280;50685;53.346;-6.296;2023-03-14T11:59:49;100655.00;;;9.06;54.54
64362;BME280;50685;53.346;-6.296;2023-03-14T12:02:22;100630.25;;;9.13;54.88
64362;BME280;50685;53.346;-6.296;2023-03-14T12:04:52;100646.06;;;9.19;55.76
64362;BME280;50685;53.346;-6.296;2023-03-14T12:07:26;100657.47;;;9.26;53.78
64362;BME280;50685;53.346;-6.296;2023-03-14T12:09:54;100645.22;;;9.17;54.23
64362;BME280;50685;53.346;-6.296;2023-03-14T12:12:22;100640.88;;;9.07;55.25
64362;BME280;50685;53.346;-6.296;2023-03-14T12:14:56;100660.41;;;8.95;54.87
64362;BME280;50685;53.346;-6.296;2023-03-14T12:17:27;100648.94;;;8.97;54.48
64362;BME280;50685;53.346;-6.296;2023-03-14T12:22:33;100676.47;;;8.68;56.16
64362;BME280;50685;53.346;-6.296;2023-03-14T12:30:17;100695.41;;;7.69;65.29
64362;BME280;50685;53.346;-6.296;2023-03-14T12:33:10;100714.81;;;7.22;68.75
64362;BME280;50685;53.346;-6.296;2023-03-14T12:38:02;100703.38;;;7.35;70.55
64362;BME280;50685;53.346;-6.296;2023-03-14T12:40:31;100708.66;;;7.42;70.13
64362;BME280;50685;53.346;-6.296;2023-03-14T12:43:02;100713.06;;;7.43;70.43
64362;BME280;50685;53.346;-6.296;2023-03-14T12:45:32;100713.06;;;7.43;70.13
64362;BME280;50685;53.346;-6.296;2023-03-14T12:48:08;100717.44;;;7.40;70.11
64362;BME280;50685;53.346;-6.296;2023-03-14T12:50:36;100700.72;;;7.32;69.97
64362;BME280;50685;53.346;-6.296;2023-03-14T12:55:35;100726.22;;;7.22;69.98
64362;BME280;50685;53.346;-6.296;2023-03-14T12:58:08;100728.88;;;7.15;69.18
64362;BME280;50685;53.346;-6.296;2023-03-14T13:00:38;100733.28;;;7.23;70.52
64362;BME280;50685;53.346;-6.296;2023-03-14T13:03:24;100727.09;;;7.60;69.80
64362;BME280;50685;53.346;-6.296;2023-03-14T13:05:53;100727.03;;;7.88;68.81
64362;BME280;50685;53.346;-6.296;2023-03-14T13:11:06;100719.94;;;8.09;67.46
64362;BME280;50685;53.346;-6.296;2023-03-14T13:13:34;100728.63;;;8.29;68.19
64362;BME280;50685;53.346;-6.296;2023-03-14T13:16:01;100716.34;;;8.16;66.63
64362;BME280;50685;53.346;-6.296;2023-03-14T13:18:39;100735.69;;;8.27;68.42
64362;BME280;50685;53.346;-6.296;2023-03-14T13:21:06;100735.78;;;7.96;67.62
64362;BME280;50685;53.346;-6.296;2023-03-14T13:23:38;100733.19;;;7.78;68.15
64362;BME280;50685;53.346;-6.296;2023-03-14T13:26:11;100725.31;;;7.73;68.89
64362;BME280;50685;53.346;-6.296;2023-03-14T13:28:41;100723.56;;;7.67;69.07
64362;BME280;50685;53.346;-6.296;2023-03-14T13:31:23;100722.59;;;7.90;67.82
64362;BME280;50685;53.346;-6.296;2023-03-14T13:33:58;100718.16;;;8.06;67.51
64362;BME280;50685;53.346;-6.296;2023-03-14T13:36:24;100726.09;;;8.08;66.53
64362;BME280;50685;53.346;-6.296;2023-03-14T13:38:55;100726.91;;;8.16;66.13
64362;BME280;50685;53.346;-6.296;2023-03-14T13:41:24;100706.56;;;8.38;65.50
64362;BME280;50685;53.346;-6.296;2023-03-14T13:43:51;100730.13;;;8.88;63.54
64362;BME280;50685;53.346;-6.296;2023-03-14T13:46:29;100728.91;;;9.27;61.81
64362;BME280;50685;53.346;-6.296;2023-03-14T13:48:58;100731.84;;;9.90;61.50
64362;BME280;50685;53.346;-6.296;2023-03-14T13:51:31;100741.88;;;10.39;58.66
64362;BME280;50685;53.346;-6.296;2023-03-14T13:54:00;100746.06;;;10.57;57.77
64362;BME280;50685;53.346;-6.296;2023-03-14T13:56:27;100728.56;;;10.44;57.75
64362;BME280;50685;53.346;-6.296;2023-03-14T13:58:53;100738.13;;;10.57;58.45
64362;BME280;50685;53.346;-6.296;2023-03-14T14:01:40;100729.06;;;10.72;57.87
64362;BME280;50685;53.346;-6.296;2023-03-14T14:04:08;100736.81;;;10.86;56.60
64362;BME280;50685;53.346;-6.296;2023-03-14T14:06:39;100734.06;;;10.92;57.04
64362;BME280;50685;53.346;-6.296;2023-03-14T14:09:10;100729.94;;;11.31;57.80
64362;BME280;50685;53.346;-6.296;2023-03-14T14:14:10;100736.16;;;11.30;55.50
64362;BME280;50685;53.346;-6.296;2023-03-14T14:16:39;100747.31;;;11.50;55.35
64362;BME280;50685;53.346;-6.296;2023-03-14T14:19:07;100738.56;;;11.44;55.03
64362;BME280;50685;53.346;-6.296;2023-03-14T14:21:32;100742.75;;;11.02;56.16
64362;BME280;50685;53.346;-6.296;2023-03-14T14:23:59;100728.59;;;10.42;56.08
64362;BME280;50685;53.346;-6.296;2023-03-14T14:26:26;100754.75;;;9.95;58.15
64362;BME280;50685;53.346;-6.296;2023-03-14T14:28:58;100760.34;;;9.66;59.20
64362;BME280;50685;53.346;-6.296;2023-03-14T14:31:24;100761.22;;;9.63;58.78
64362;BME280;50685;53.346;-6.296;2023-03-14T14:36:19;100744.56;;;10.33;56.42
64362;BME280;50685;53.346;-6.296;2023-03-14T14:38:52;100730.28;;;11.09;54.91
64362;BME280;50685;53.346;-6.296;2023-03-14T14:41:18;100736.03;;;11.34;52.61
64362;BME280;50685;53.346;-6.296;2023-03-14T14:43:44;100744.28;;;11.19;52.95
64362;BME280;50685;53.346;-6.296;2023-03-14T14:46:16;100745.69;;;10.85;54.89
64362;BME280;50685;53.346;-6.296;2023-03-14T14:48:42;100749.91;;;10.32;55.22
64362;BME280;50685;53.346;-6.296;2023-03-14T14:51:07;100768.84;;;9.97;60.29
64362;BME280;50685;53.346;-6.296;2023-03-14T14:53:38;100806.94;;;9.84;64.55
64362;BME280;50685;53.346;-6.296;2023-03-14T14:56:06;100795.06;;;9.30;63.20
64362;BME280;50685;53.346;-6.296;2023-03-14T14:58:34;100789.34;;;8.51;64.90
64362;BME280;50685;53.346;-6.296;2023-03-14T15:01:13;100793.88;;;8.12;65.10
64362;BME280;50685;53.346;-6.296;2023-03-14T15:03:41;100830.84;;;8.06;67.88
64362;BME280;50685;53.346;-6.296;2023-03-14T15:06:08;100836.13;;;8.02;67.78
64362;BME280;50685;53.346;-6.296;2023-03-14T15:08:35;100844.97;;;7.97;68.38
64362;BME280;50685;53.346;-6.296;2023-03-14T15:11:02;100853.78;;;7.94;68.07
64362;BME280;50685;53.346;-6.296;2023-03-14T15:13:27;100859.03;;;7.91;68.29
64362;BME280;50685;53.346;-6.296;2023-03-14T15:15:52;100852.00;;;7.76;69.21
64362;BME280;50685;53.346;-6.296;2023-03-14T15:18:21;100859.06;;;7.65;69.83
64362;BME280;50685;53.346;-6.296;2023-03-14T15:20:47;100849.38;;;7.51;70.43
64362;BME280;50685;53.346;-6.296;2023-03-14T15:23:13;100842.31;;;7.30;70.51
64362;BME280;50685;53.346;-6.296;2023-03-14T15:25:39;100854.59;;;7.19;69.48
64362;BME280;50685;53.346;-6.296;2023-03-14T15:28:14;100865.13;;;7.10;70.99
64362;BME280;50685;53.346;-6.296;2023-03-14T15:30:41;100868.59;;;6.98;70.16
64362;BME280;50685;53.346;-6.296;2023-03-14T15:33:08;100880.03;;;6.94;71.16
64362;BME280;50685;53.346;-6.296;2023-03-14T15:35:37;100894.91;;;6.78;71.50
64362;BME280;50685;53.346;-6.296;2023-03-14T15:38:02;100895.78;;;6.77;72.60
64362;BME280;50685;53.346;-6.296;2023-03-14T15:40:28;100885.06;;;6.41;71.24
64362;BME280;50685;53.346;-6.296;2023-03-14T15:42:53;100889.38;;;6.31;72.76
64362;BME280;50685;53.346;-6.296;2023-03-14T15:45:19;100893.69;;;6.17;73.30
64362;BME280;50685;53.346;-6.296;2023-03-14T15:47:46;100904.16;;;6.10;73.30
64362;BME280;50685;53.346;-6.296;2023-03-14T15:50:12;100906.97;;;6.35;75.18
64362;BME280;50685;53.346;-6.296;2023-03-14T16:14:00;100899.47;;;7.36;68.57
64362;BME280;50685;53.346;-6.296;2023-03-14T16:16:29;100909.16;;;7.29;69.51
64362;BME280;50685;53.346;-6.296;2023-03-14T16:19:01;100914.41;;;7.23;70.55
64362;BME280;50685;53.346;-6.296;2023-03-14T16:21:30;100921.44;;;7.27;70.57
64362;BME280;50685;53.346;-6.296;2023-03-14T16:24:02;100924.09;;;7.30;69.32
64362;BME280;50685;53.346;-6.296;2023-03-14T16:26:33;100932.03;;;7.39;68.58
64362;BME280;50685;53.346;-6.296;2023-03-14T16:29:10;100926.78;;;7.50;68.70
64362;BME280;50685;53.346;-6.296;2023-03-14T16:31:40;100931.19;;;7.58;69.38
64362;BME280;50685;53.346;-6.296;2023-03-14T16:34:11;100925.91;;;7.44;68.48
64362;BME280;50685;53.346;-6.296;2023-03-14T16:36:38;100924.09;;;7.26;68.13
64362;BME280;50685;53.346;-6.296;2023-03-14T16:45:10;100926.63;;;6.96;68.80
64362;BME280;50685;53.346;-6.296;2023-03-14T16:47:41;100940.66;;;6.86;68.67
